createdAt,value
2022-10-09T00:01:19.743Z,5.35
2022-10-09T00:03:50.049Z,4.70
2022-10-09T00:06:20.642Z,1.92
2022-10-09T00:08:48.065Z,2.42
2022-10-09T00:11:22.187Z,2.72
2022-10-09T00:13:50.048Z,4.35
2022-10-09T00:16:18.374Z,2.97
2022-10-09T00:18:45.781Z,1.88
2022-10-09T00:21:27.825Z,3.22
2022-10-09T00:23:57.491Z,2.90
2022-10-09T00:26:24.863Z,2.88
2022-10-09T00:28:52.501Z,3.90
2022-10-09T00:31:19.958Z,3.42
2022-10-09T00:33:47.594Z,2.08
2022-10-09T00:36:20.443Z,6.43
2022-10-09T00:38:47.890Z,3.10
2022-10-09T00:41:18.261Z,4.57
2022-10-09T00:43:53.958Z,1.77
2022-10-09T00:46:21.675Z,3.28
2022-10-09T00:48:58.979Z,2.38
2022-10-09T00:51:26.724Z,4.57
2022-10-09T00:53:53.833Z,3.72
2022-10-09T00:56:21.076Z,3.15
2022-10-09T00:58:53.513Z,2.55
2022-10-09T01:01:20.976Z,3.03
2022-10-09T01:03:48.041Z,2.03
2022-10-09T01:06:15.112Z,4.95
2022-10-09T01:08:44.861Z,1.80
2022-10-09T01:11:22.270Z,3.60
2022-10-09T01:14:20.158Z,2.03
2022-10-09T01:17:33.780Z,3.28
2022-10-09T01:20:25.462Z,2.95
2022-10-09T01:23:19.497Z,3.63
2022-10-09T01:26:13.676Z,2.97
2022-10-09T01:28:44.604Z,2.70
2022-10-09T01:31:13.302Z,2.58
2022-10-09T01:33:41.131Z,3.75
2022-10-09T01:36:10.532Z,4.38
2022-10-09T01:38:39.555Z,5.50
2022-10-09T01:41:08.340Z,1.42
2022-10-09T01:43:35.636Z,2.35
2022-10-09T01:46:22.723Z,3.10
2022-10-09T01:49:22.001Z,2.05
2022-10-09T01:52:00.359Z,0.77
2022-10-09T01:54:43.963Z,1.80
2022-10-09T01:57:14.258Z,5.38
2022-10-09T01:59:45.107Z,1.45
2022-10-09T02:02:12.674Z,4.10
2022-10-09T02:04:43.028Z,3.30
2022-10-09T02:07:10.538Z,3.13
2022-10-09T02:09:41.021Z,5.75
2022-10-09T02:12:12.084Z,4.50
2022-10-09T02:14:39.641Z,2.90
2022-10-09T02:17:11.916Z,2.78
2022-10-09T02:19:52.674Z,2.33
2022-10-09T02:22:27.853Z,7.57
2022-10-09T02:24:56.807Z,3.65
2022-10-09T02:27:24.653Z,3.13
2022-10-09T02:29:53.487Z,4.10
2022-10-09T02:32:20.542Z,1.40
2022-10-09T02:34:47.657Z,2.67
2022-10-09T02:37:15.361Z,3.65
2022-10-09T02:39:43.833Z,3.60
2022-10-09T02:42:11.003Z,5.65
2022-10-09T02:44:38.078Z,4.63
2022-10-09T02:47:05.165Z,4.68
2022-10-09T02:49:32.440Z,6.80
2022-10-09T02:51:59.547Z,3.00
2022-10-09T02:54:26.710Z,7.60
2022-10-09T02:56:53.754Z,5.40
2022-10-09T02:59:20.875Z,4.88
2022-10-09T03:01:48.126Z,4.32
2022-10-09T03:04:15.286Z,1.90
2022-10-09T03:06:42.300Z,12.93
2022-10-09T03:09:09.377Z,3.38
2022-10-09T03:11:36.398Z,4.00
2022-10-09T03:14:03.616Z,4.45
2022-10-09T03:16:30.746Z,4.40
2022-10-09T03:18:58.698Z,5.65
2022-10-09T03:21:27.706Z,5.50
2022-10-09T03:23:55.551Z,3.25
2022-10-09T03:26:25.246Z,8.02
2022-10-09T03:28:53.648Z,1.73
2022-10-09T03:31:50.420Z,2.25
2022-10-09T03:34:12.501Z,4.32
2022-10-09T03:36:39.586Z,3.20
2022-10-09T03:39:06.681Z,2.03
2022-10-09T03:41:33.866Z,6.43
2022-10-09T03:44:01.076Z,2.10
2022-10-09T03:46:28.207Z,4.57
2022-10-09T03:48:55.477Z,5.63
2022-10-09T03:51:22.518Z,4.88
2022-10-09T03:53:50.429Z,3.22
2022-10-09T03:56:17.488Z,3.58
2022-10-09T03:58:44.682Z,3.83
2022-10-09T04:01:11.745Z,5.63
2022-10-09T04:03:38.885Z,1.63
2022-10-09T04:06:06.375Z,6.00
2022-10-09T04:08:33.443Z,5.25
2022-10-09T04:11:01.547Z,2.65
2022-10-09T04:13:28.983Z,9.93
2022-10-09T04:15:56.626Z,7.72
2022-10-09T04:18:24.278Z,5.80
2022-10-09T04:20:53.585Z,7.50
2022-10-09T04:23:23.246Z,6.25
2022-10-09T04:25:54.976Z,8.00
2022-10-09T04:28:23.569Z,8.98
2022-10-09T04:30:50.962Z,11.73
2022-10-09T04:33:18.656Z,4.18
2022-10-09T04:35:49.314Z,7.07
2022-10-09T04:38:16.616Z,6.15
2022-10-09T04:40:43.681Z,7.32
2022-10-09T04:43:10.747Z,7.55
2022-10-09T04:45:42.642Z,5.32
2022-10-09T04:48:09.751Z,6.78
2022-10-09T04:50:39.552Z,7.30
2022-10-09T04:53:06.681Z,5.13
2022-10-09T04:55:33.766Z,6.07
2022-10-09T04:58:00.850Z,3.50
2022-10-09T05:00:28.099Z,6.15
2022-10-09T05:02:55.586Z,6.55
2022-10-09T05:05:22.693Z,8.20
2022-10-09T05:07:49.830Z,7.13
2022-10-09T05:10:16.984Z,4.60
2022-10-09T05:12:44.100Z,7.53
2022-10-09T05:15:11.164Z,8.63
2022-10-09T05:17:38.365Z,7.63
2022-10-09T05:20:05.803Z,8.23
2022-10-09T05:22:32.983Z,4.50
2022-10-09T05:25:00.018Z,8.68
2022-10-09T05:27:27.116Z,8.82
2022-10-09T05:29:54.195Z,4.10
2022-10-09T05:32:21.468Z,8.68
2022-10-09T05:34:48.497Z,9.15
2022-10-09T05:37:15.610Z,7.40
2022-10-09T05:39:42.641Z,5.90
2022-10-09T05:42:09.681Z,9.32
2022-10-09T05:44:36.791Z,5.10
2022-10-09T05:47:04.016Z,5.53
2022-10-09T05:49:31.015Z,5.97
2022-10-09T05:51:58.151Z,5.00
2022-10-09T05:54:25.553Z,6.38
2022-10-09T05:56:52.715Z,8.55
2022-10-09T05:59:20.121Z,10.25
2022-10-09T06:01:51.767Z,3.75
2022-10-09T06:04:23.964Z,8.60
2022-10-09T06:06:51.428Z,9.43
2022-10-09T06:09:23.186Z,3.03
2022-10-09T06:11:51.565Z,5.90
2022-10-09T06:14:22.022Z,4.78
2022-10-09T06:16:50.251Z,5.50
2022-10-09T06:19:18.783Z,3.78
2022-10-09T06:21:47.284Z,8.27
2022-10-09T06:24:28.314Z,5.93
2022-10-09T06:26:57.527Z,3.75
2022-10-09T06:29:24.864Z,8.38
2022-10-09T06:31:52.013Z,3.38
2022-10-09T06:34:19.175Z,5.63
2022-10-09T06:36:46.699Z,5.65
2022-10-09T06:39:13.746Z,2.58
2022-10-09T06:41:40.916Z,2.15
2022-10-09T06:44:23.403Z,2.50
2022-10-09T06:46:50.494Z,3.75
2022-10-09T06:49:17.734Z,4.28
2022-10-09T06:51:44.911Z,2.70
2022-10-09T06:54:14.369Z,3.42
2022-10-09T06:56:41.657Z,4.00
2022-10-09T06:59:10.346Z,2.78
2022-10-09T07:01:37.680Z,5.28
2022-10-09T07:04:11.128Z,4.53
2022-10-09T07:06:41.991Z,9.32
2022-10-09T07:09:11.381Z,7.63
2022-10-09T07:11:42.952Z,10.68
2022-10-09T07:14:11.519Z,7.45
2022-10-09T07:16:41.917Z,10.77
2022-10-09T07:19:11.548Z,7.63
2022-10-09T07:21:43.485Z,7.10
2022-10-09T07:24:11.651Z,7.78
2022-10-09T07:26:41.773Z,5.00
2022-10-09T07:29:10.713Z,10.25
2022-10-09T07:31:38.028Z,8.38
2022-10-09T07:34:06.494Z,13.48
2022-10-09T07:36:34.426Z,10.45
2022-10-09T07:39:01.703Z,10.65
2022-10-09T07:41:30.315Z,9.80
2022-10-09T07:43:58.553Z,8.48
2022-10-09T07:46:30.990Z,9.77
2022-10-09T07:49:00.245Z,7.05
2022-10-09T07:51:29.341Z,6.35
2022-10-09T07:53:57.538Z,10.32
2022-10-09T07:56:26.928Z,6.65
2022-10-09T07:58:56.116Z,2.95
2022-10-09T08:01:25.169Z,6.65
2022-10-09T08:03:52.207Z,6.45
2022-10-09T08:06:20.090Z,3.80
2022-10-09T08:08:52.247Z,3.72
2022-10-09T08:11:20.823Z,4.70
2022-10-09T08:13:51.842Z,3.10
2022-10-09T08:16:21.108Z,5.00
2022-10-09T08:18:49.171Z,5.40
2022-10-09T08:21:18.520Z,6.78
2022-10-09T08:23:46.245Z,7.35
2022-10-09T08:26:15.816Z,3.72
2022-10-09T08:28:43.517Z,5.47
2022-10-09T08:31:15.992Z,5.47
2022-10-09T08:33:43.388Z,5.95
2022-10-09T08:36:12.428Z,6.60
2022-10-09T08:38:48.179Z,3.38
2022-10-09T08:41:25.051Z,7.18
2022-10-09T08:44:02.039Z,10.48
2022-10-09T08:46:45.266Z,12.70
2022-10-09T08:49:33.143Z,5.53
2022-10-09T08:52:23.355Z,7.88
2022-10-09T08:54:51.328Z,10.13
2022-10-09T08:57:18.860Z,5.28
2022-10-09T08:59:46.076Z,11.93
2022-10-09T09:02:35.734Z,11.38
2022-10-09T09:05:33.474Z,8.57
2022-10-09T09:08:13.269Z,6.88
2022-10-09T09:10:57.670Z,5.10
2022-10-09T09:13:42.385Z,8.43
2022-10-09T09:16:21.515Z,6.95
2022-10-09T09:19:11.691Z,7.80
2022-10-09T09:21:48.775Z,7.47
2022-10-09T09:24:25.884Z,7.93
2022-10-09T09:26:59.479Z,8.85
2022-10-09T09:29:27.205Z,8.57
2022-10-09T09:32:00.894Z,10.13
2022-10-09T09:34:42.127Z,9.30
2022-10-09T09:37:12.054Z,19.13
2022-10-09T09:40:34.918Z,11.90
2022-10-09T09:42:28.429Z,13.35
2022-10-09T09:45:02.146Z,11.77
2022-10-09T09:47:40.550Z,8.82
2022-10-09T09:50:23.376Z,12.60
2022-10-09T09:52:56.469Z,10.88
2022-10-09T09:55:27.618Z,8.05
2022-10-09T09:58:02.641Z,9.98
2022-10-09T10:00:30.167Z,8.43
2022-10-09T10:03:14.034Z,13.52
2022-10-09T10:05:42.895Z,12.40
2022-10-09T10:08:33.081Z,8.18
2022-10-09T10:11:06.861Z,11.90
2022-10-09T10:13:45.872Z,16.05
2022-10-09T10:16:26.107Z,12.07
2022-10-09T10:18:57.604Z,11.95
2022-10-09T10:21:24.840Z,6.15
2022-10-09T10:23:58.058Z,8.85
2022-10-09T10:26:36.865Z,6.65
2022-10-09T10:29:14.837Z,11.13
2022-10-09T10:32:13.805Z,6.95
2022-10-09T10:35:14.792Z,12.32
2022-10-09T10:38:17.123Z,6.90
2022-10-09T10:40:57.105Z,10.93
2022-10-09T10:43:41.061Z,7.45
2022-10-09T10:46:29.983Z,8.07
2022-10-09T10:48:59.754Z,9.80
2022-10-09T10:51:56.703Z,8.45
2022-10-09T10:54:57.966Z,6.80
2022-10-09T10:57:37.003Z,10.75
2022-10-09T11:00:11.507Z,13.20
2022-10-09T11:02:56.890Z,7.20
2022-10-09T11:05:50.989Z,5.57
2022-10-09T11:08:36.968Z,14.25
2022-10-09T11:11:11.348Z,10.18
2022-10-09T11:13:57.412Z,9.40
2022-10-09T11:16:36.731Z,12.63
2022-10-09T11:19:45.119Z,11.73
2022-10-09T11:22:39.843Z,15.93
2022-10-09T11:25:29.911Z,16.17
2022-10-09T11:28:10.979Z,14.93
2022-10-09T11:31:10.193Z,10.00
2022-10-09T11:33:43.055Z,11.02
2022-10-09T11:36:22.889Z,11.18
2022-10-09T11:39:05.377Z,13.68
2022-10-09T11:41:35.214Z,12.13
2022-10-09T11:44:26.316Z,9.05
2022-10-09T11:47:08.784Z,11.38
2022-10-09T11:50:03.803Z,10.82
2022-10-09T11:52:36.909Z,11.52
2022-10-09T11:55:31.845Z,14.65
2022-10-09T11:58:26.026Z,18.65
2022-10-09T12:00:55.450Z,9.55
2022-10-09T12:03:35.212Z,14.85
2022-10-09T12:06:22.470Z,15.13
2022-10-09T12:09:03.728Z,15.63
2022-10-09T12:11:32.542Z,9.15
2022-10-09T12:14:06.417Z,10.07
2022-10-09T12:16:46.084Z,14.82
2022-10-09T12:19:21.303Z,10.13
2022-10-09T12:21:58.815Z,8.93
2022-10-09T12:24:30.791Z,15.23
2022-10-09T12:27:03.325Z,13.75
2022-10-09T12:29:50.729Z,6.60
2022-10-09T12:32:39.791Z,12.75
2022-10-09T12:35:22.491Z,9.50
2022-10-09T12:37:49.555Z,13.00
2022-10-09T12:40:31.760Z,10.63
2022-10-09T12:43:06.506Z,9.18
2022-10-09T12:45:33.991Z,13.55
2022-10-09T12:48:11.342Z,11.55
2022-10-09T12:50:38.659Z,11.70
2022-10-09T12:53:18.658Z,11.95
2022-10-09T12:55:49.184Z,11.15
2022-10-09T12:58:23.809Z,11.05
2022-10-09T13:00:55.594Z,11.82
2022-10-09T13:03:25.512Z,13.80
2022-10-09T13:05:57.597Z,14.57
2022-10-09T13:08:36.274Z,9.93
2022-10-09T13:11:32.503Z,12.23
2022-10-09T13:16:27.188Z,14.52
2022-10-09T13:19:02.534Z,11.38
2022-10-09T13:24:13.589Z,10.30
2022-10-09T13:26:43.451Z,18.95
2022-10-09T13:29:13.460Z,11.60
2022-10-09T13:31:43.796Z,11.82
2022-10-09T13:34:16.396Z,10.63
2022-10-09T13:36:43.450Z,10.82
2022-10-09T13:39:17.143Z,11.88
2022-10-09T13:41:46.185Z,10.07
2022-10-09T13:44:13.265Z,10.57
2022-10-09T13:46:41.692Z,14.20
2022-10-09T13:49:09.921Z,9.15
2022-10-09T13:51:37.093Z,13.15
2022-10-09T13:54:04.447Z,10.15
2022-10-09T13:56:32.057Z,17.60
2022-10-09T13:58:59.465Z,11.48
2022-10-09T14:01:26.887Z,10.90
2022-10-09T14:03:54.152Z,11.30
2022-10-09T14:06:22.520Z,8.68
2022-10-09T14:08:50.243Z,12.70
2022-10-09T14:11:17.315Z,10.50
2022-10-09T14:13:44.306Z,14.95
2022-10-09T14:16:11.413Z,8.38
2022-10-09T14:18:38.588Z,12.98
2022-10-09T14:21:15.336Z,15.45
2022-10-09T14:23:43.471Z,13.95
2022-10-09T14:26:10.510Z,8.65
2022-10-09T14:28:38.376Z,14.75
2022-10-09T14:31:07.320Z,13.68
2022-10-09T14:33:34.512Z,12.98
2022-10-09T14:36:09.449Z,17.60
2022-10-09T14:38:38.307Z,11.35
2022-10-09T14:41:05.925Z,10.88
2022-10-09T14:43:33.422Z,9.90
2022-10-09T14:46:10.513Z,10.30
2022-10-09T14:48:38.003Z,14.82
2022-10-09T14:51:10.925Z,12.73
2022-10-09T14:53:38.081Z,16.40
2022-10-09T14:56:07.891Z,11.45
2022-10-09T14:58:36.520Z,10.18
2022-10-09T15:01:03.869Z,13.45
2022-10-09T15:03:31.587Z,14.73
2022-10-09T15:06:03.738Z,25.80
2022-10-09T15:08:32.481Z,11.98
2022-10-09T15:10:59.677Z,14.23
2022-10-09T15:13:27.054Z,17.45
2022-10-09T15:16:00.269Z,10.77
2022-10-09T15:18:28.957Z,10.38
2022-10-09T15:20:56.389Z,10.32
2022-10-09T15:23:23.695Z,12.85
2022-10-09T15:25:56.652Z,9.50
2022-10-09T15:28:24.793Z,12.73
2022-10-09T15:30:54.903Z,11.02
2022-10-09T15:33:22.683Z,14.73
2022-10-09T15:35:52.381Z,17.23
2022-10-09T15:38:22.374Z,13.93
2022-10-09T15:40:53.080Z,11.25
2022-10-09T15:43:22.606Z,12.10
2022-10-09T15:45:50.117Z,10.68
2022-10-09T15:48:19.906Z,9.82
2022-10-09T15:50:50.811Z,12.55
2022-10-09T15:53:19.782Z,9.88
2022-10-09T15:55:48.546Z,10.52
2022-10-09T15:58:17.271Z,12.00
2022-10-09T16:00:47.527Z,16.15
2022-10-09T16:03:16.730Z,10.82
2022-10-09T16:05:51.099Z,8.00
2022-10-09T16:08:19.306Z,7.97
2022-10-09T16:10:49.452Z,9.80
2022-10-09T16:13:16.870Z,8.55
2022-10-09T16:15:47.761Z,7.45
2022-10-09T16:18:16.847Z,10.60
2022-10-09T16:20:44.611Z,7.85
2022-10-09T16:23:12.648Z,10.13
2022-10-09T16:25:40.812Z,11.02
2022-10-09T16:28:10.013Z,11.57
2022-10-09T16:30:45.684Z,12.80
2022-10-09T16:33:13.159Z,10.43
2022-10-09T16:35:40.545Z,9.82
2022-10-09T16:38:07.828Z,12.48
2022-10-09T16:41:00.798Z,13.13
2022-10-09T16:43:23.451Z,14.57
2022-10-09T16:45:50.468Z,11.38
2022-10-09T16:48:17.569Z,10.82
2022-10-09T16:50:44.638Z,14.95
2022-10-09T16:53:11.733Z,12.95
2022-10-09T16:55:38.871Z,15.70
2022-10-09T16:58:06.057Z,10.57
2022-10-09T17:00:33.168Z,11.85
2022-10-09T17:03:00.319Z,16.90
2022-10-09T17:05:27.745Z,11.52
2022-10-09T17:07:55.103Z,12.30
2022-10-09T17:10:22.203Z,15.00
2022-10-09T17:12:49.485Z,12.77
2022-10-09T17:15:16.820Z,15.55
2022-10-09T17:17:44.039Z,12.32
2022-10-09T17:20:11.141Z,16.65
2022-10-09T17:22:38.294Z,9.05
2022-10-09T17:25:06.144Z,17.42
2022-10-09T17:27:33.355Z,13.52
2022-10-09T17:30:00.474Z,9.40
2022-10-09T17:32:27.845Z,8.68
2022-10-09T17:34:57.595Z,15.38
2022-10-09T17:37:25.941Z,11.57
2022-10-09T17:39:52.976Z,10.82
2022-10-09T17:42:20.169Z,20.25
2022-10-09T17:44:47.328Z,13.75
2022-10-09T17:47:14.410Z,13.30
2022-10-09T17:49:41.521Z,11.25
2022-10-09T17:52:08.628Z,15.77
2022-10-09T17:54:35.655Z,14.88
2022-10-09T17:57:05.362Z,9.25
2022-10-09T17:59:34.446Z,17.00
2022-10-09T18:02:01.591Z,11.27
2022-10-09T18:04:28.698Z,13.30
2022-10-09T18:06:56.217Z,14.80
2022-10-09T18:09:23.534Z,14.63
2022-10-09T18:11:50.700Z,13.70
2022-10-09T18:14:17.723Z,13.63
2022-10-09T18:16:45.032Z,13.20
2022-10-09T18:19:14.801Z,14.57
2022-10-09T18:21:45.084Z,12.82
2022-10-09T18:24:13.237Z,9.15
2022-10-09T18:26:41.198Z,8.90
2022-10-09T18:29:08.505Z,11.88
2022-10-09T18:31:35.567Z,12.15
2022-10-09T18:34:02.790Z,10.73
2022-10-09T18:36:35.000Z,12.77
2022-10-09T18:39:07.228Z,11.55
2022-10-09T18:41:35.481Z,9.93
2022-10-09T18:44:03.942Z,8.98
2022-10-09T18:46:42.697Z,12.07
2022-10-09T18:49:13.591Z,12.10
2022-10-09T18:51:42.203Z,16.23
2022-10-09T18:54:13.288Z,16.27
2022-10-09T18:56:43.156Z,11.32
2022-10-09T18:59:13.752Z,17.55
2022-10-09T19:01:40.967Z,9.48
2022-10-09T19:04:08.762Z,23.77
2022-10-09T19:06:36.393Z,14.15
2022-10-09T19:09:03.844Z,12.63
2022-10-09T19:11:33.782Z,14.55
2022-10-09T19:14:00.947Z,12.68
2022-10-09T19:16:30.259Z,14.98
2022-10-09T19:18:57.402Z,11.35
2022-10-09T19:21:24.854Z,12.73
2022-10-09T19:23:53.568Z,10.10
2022-10-09T19:26:22.206Z,15.20
2022-10-09T19:28:49.534Z,12.93
2022-10-09T19:31:17.091Z,15.05
2022-10-09T19:33:45.368Z,11.95
2022-10-09T19:36:13.635Z,11.55
2022-10-09T19:38:41.358Z,17.75
2022-10-09T19:41:11.450Z,12.48
2022-10-09T19:43:39.300Z,14.88
2022-10-09T19:46:18.662Z,7.82
2022-10-09T19:48:46.657Z,15.20
2022-10-09T19:51:19.696Z,7.05
2022-10-09T19:53:47.484Z,8.43
2022-10-09T19:56:18.595Z,11.27
2022-10-09T19:58:47.192Z,11.48
2022-10-09T20:01:16.918Z,7.68
2022-10-09T20:03:44.363Z,7.30
2022-10-09T20:06:12.102Z,9.02
2022-10-09T20:08:40.736Z,7.72
2022-10-09T20:11:07.966Z,8.40
2022-10-09T20:13:36.422Z,7.55
2022-10-09T20:16:05.876Z,1.98
2022-10-09T20:18:33.697Z,0.55
2022-10-09T20:21:01.276Z,0.17
2022-10-09T20:23:28.573Z,0.22
2022-10-09T20:26:07.675Z,0.43
2022-10-09T20:28:36.303Z,0.28
2022-10-09T20:31:08.119Z,0.10
2022-10-09T20:33:39.261Z,1.88
2022-10-09T20:36:07.763Z,0.73
2022-10-09T20:38:35.351Z,0.95
2022-10-09T20:41:08.359Z,2.38
2022-10-09T20:43:36.087Z,2.85
2022-10-09T20:46:13.458Z,3.35
2022-10-09T20:48:43.798Z,4.90
2022-10-09T20:51:10.903Z,1.77
2022-10-09T20:53:38.008Z,4.35
2022-10-09T20:56:07.881Z,2.05
2022-10-09T20:58:35.414Z,4.25
2022-10-09T21:01:10.682Z,4.50
2022-10-09T21:06:07.431Z,3.08
2022-10-09T21:08:35.366Z,2.72
2022-10-09T21:11:09.828Z,4.18
2022-10-09T21:13:38.336Z,1.85
2022-10-09T21:16:07.502Z,3.67
2022-10-09T21:18:34.897Z,1.60
2022-10-09T21:21:07.193Z,2.45
2022-10-09T21:23:34.778Z,3.90
2022-10-09T21:26:02.102Z,4.85
2022-10-09T21:28:29.475Z,3.75
2022-10-09T21:30:56.656Z,3.60
2022-10-09T21:33:23.776Z,3.97
2022-10-09T21:35:55.439Z,4.20
2022-10-09T21:38:23.761Z,3.58
2022-10-09T21:40:50.956Z,5.80
2022-10-09T21:43:18.625Z,1.95
2022-10-09T21:45:49.570Z,2.08
2022-10-09T21:48:17.160Z,3.03
2022-10-09T21:50:45.244Z,3.53
2022-10-09T21:53:12.918Z,4.05
2022-10-09T21:55:40.294Z,1.52
2022-10-09T21:58:11.609Z,5.88
2022-10-09T22:00:38.737Z,6.22
2022-10-09T22:03:05.972Z,7.38
2022-10-09T22:05:33.206Z,4.60
2022-10-09T22:08:00.336Z,5.88
2022-10-09T22:10:27.440Z,8.88
2022-10-09T22:12:54.688Z,4.45
2022-10-09T22:15:22.952Z,5.28
2022-10-09T22:17:49.959Z,1.50
2022-10-09T22:20:17.224Z,1.73
2022-10-09T22:22:44.397Z,2.78
2022-10-09T22:25:11.952Z,2.67
2022-10-09T22:27:39.049Z,3.05
2022-10-09T22:30:06.953Z,1.45
2022-10-09T22:32:34.040Z,7.00
2022-10-09T22:35:01.236Z,2.63
2022-10-09T22:37:28.375Z,1.10
2022-10-09T22:39:55.514Z,3.63
2022-10-09T22:42:22.594Z,2.30
2022-10-09T22:44:49.714Z,3.55
2022-10-09T22:47:16.789Z,9.77
2022-10-09T22:49:44.043Z,3.25
2022-10-09T22:52:11.144Z,3.05
2022-10-09T22:54:38.279Z,4.60
2022-10-09T22:57:05.457Z,6.00
2022-10-09T22:59:32.714Z,3.47
2022-10-09T23:02:00.581Z,3.13
2022-10-09T23:04:29.183Z,2.10
2022-10-09T23:06:57.857Z,6.18
2022-10-09T23:09:29.644Z,6.68
2022-10-09T23:11:57.515Z,2.40
2022-10-09T23:14:25.147Z,1.25
2022-10-09T23:16:52.505Z,4.00
2022-10-09T23:19:20.973Z,3.90
2022-10-09T23:21:48.117Z,4.20
2022-10-09T23:24:17.839Z,0.80
2022-10-09T23:26:47.001Z,2.95
2022-10-09T23:29:17.554Z,7.43
2022-10-09T23:31:45.611Z,2.97
2022-10-09T23:34:13.260Z,6.65
2022-10-09T23:36:40.946Z,4.97
2022-10-09T23:39:08.153Z,7.18
2022-10-09T23:41:35.482Z,3.28
2022-10-09T23:44:02.726Z,6.75
2022-10-09T23:46:33.883Z,9.38
2022-10-09T23:49:01.091Z,4.70
2022-10-09T23:51:28.976Z,4.22
2022-10-09T23:53:57.333Z,4.60
2022-10-09T23:56:27.610Z,4.13
2022-10-09T23:58:55.977Z,3.92
